Time;durP1;ratioP1;P1;durP2;ratioP2;P2;SDS_P1;SDS_P2;PMS_P1;PMS_P2;Temp;Humidity;BMP_temperature;BMP_pressure;BME280_temperature;BME280_humidity;BME280_pressure;Samples;Min_cycle;Max_cycle;Signal;HPM_P1;HPM_P2
2023/03/29 00:00:14;;;;;;;2.72;1.80;;;4.70;99.90;;;;;;4956928;28;21334;-66
2023/03/29 00:02:41;;;;;;;3.60;1.67;;;4.70;99.90;;;;;;4956854;28;20034;-66
2023/03/29 00:05:08;;;;;;;5.90;2.35;;;4.70;99.90;;;;;;4964029;28;20035;-66
2023/03/29 00:07:34;;;;;;;7.18;1.98;;;4.70;99.90;;;;;;4949560;28;20039;-66
2023/03/29 00:10:03;;;;;;;4.20;2.10;;;4.70;99.90;;;;;;4965449;28;20019;-66
2023/03/29 00:12:29;;;;;;;8.18;2.13;;;4.70;99.90;;;;;;4952084;28;20027;-67
2023/03/29 00:14:55;;;;;;;4.63;2.28;;;4.70;99.90;;;;;;4939014;28;20092;-66
2023/03/29 00:17:21;;;;;;;3.47;1.85;;;4.60;99.90;;;;;;4972342;28;20035;-66
2023/03/29 00:19:47;;;;;;;4.03;2.20;;;4.60;99.90;;;;;;4948458;28;20023;-66
2023/03/29 00:22:14;;;;;;;5.82;2.92;;;4.60;99.90;;;;;;4951305;28;20027;-66
2023/03/29 00:24:39;;;;;;;6.13;1.52;;;4.60;99.90;;;;;;4956697;28;20086;-67
2023/03/29 00:27:05;;;;;;;4.57;2.13;;;4.60;99.90;;;;;;4952666;28;20031;-66
2023/03/29 00:29:31;;;;;;;6.32;2.25;;;4.60;99.90;;;;;;4951214;28;20481;-67
2023/03/29 00:31:57;;;;;;;9.07;2.45;;;4.70;99.90;;;;;;4952683;28;20031;-66
2023/03/29 00:34:23;;;;;;;4.82;2.13;;;4.70;99.90;;;;;;4951007;28;20039;-66
2023/03/29 00:36:49;;;;;;;7.32;2.05;;;4.70;99.90;;;;;;4952049;28;20500;-65
2023/03/29 00:39:17;;;;;;;10.88;2.72;;;4.70;99.90;;;;;;4946290;28;20054;-65
2023/03/29 00:41:48;;;;;;;4.72;2.20;;;4.70;99.90;;;;;;4936120;28;20041;-65
2023/03/29 00:44:51;;;;;;;3.92;2.05;;;4.70;99.90;;;;;;4952099;28;20031;-65
2023/03/29 00:47:20;;;;;;;6.07;2.40;;;4.70;99.90;;;;;;4953578;28;20531;-66
2023/03/29 00:49:46;;;;;;;7.82;1.98;;;4.70;99.90;;;;;;4957676;28;20114;-65
2023/03/29 00:52:14;;;;;;;4.90;2.28;;;4.70;99.90;;;;;;4956120;28;20050;-65
2023/03/29 00:54:43;;;;;;;3.47;2.03;;;4.70;99.90;;;;;;4963684;28;20421;-66
2023/03/29 00:57:12;;;;;;;4.57;2.40;;;4.80;99.90;;;;;;4951845;28;20114;-66
2023/03/29 00:59:39;;;;;;;4.85;1.77;;;4.80;99.90;;;;;;4951337;28;20040;-66
2023/03/29 01:02:06;;;;;;;9.30;2.45;;;4.80;99.90;;;;;;4950332;28;20047;-65
2023/03/29 01:04:35;;;;;;;3.83;2.00;;;4.80;99.90;;;;;;4955096;28;20552;-65
2023/03/29 01:07:20;;;;;;;6.97;3.58;;;4.80;99.90;;;;;;4945290;28;20019;-65
2023/03/29 01:10:14;;;;;;;3.17;1.85;;;4.80;99.90;;;;;;4958323;28;20031;-65
2023/03/29 01:12:47;;;;;;;10.10;3.10;;;4.80;99.90;;;;;;4939029;28;20048;-66
2023/03/29 01:15:18;;;;;;;4.43;1.83;;;4.80;99.90;;;;;;4949446;28;20058;-66
2023/03/29 01:17:48;;;;;;;5.43;2.28;;;4.80;99.90;;;;;;4948129;28;20027;-66
2023/03/29 01:20:21;;;;;;;5.10;2.33;;;4.80;99.90;;;;;;4955903;28;20027;-66
2023/03/29 01:23:06;;;;;;;4.07;2.20;;;4.80;99.90;;;;;;4943850;28;20035;-66
2023/03/29 01:25:40;;;;;;;11.10;2.53;;;4.80;99.90;;;;;;4955822;28;20053;-66
2023/03/29 01:28:11;;;;;;;5.20;2.60;;;4.80;99.90;;;;;;4951896;28;20032;-66
2023/03/29 01:30:50;;;;;;;3.80;2.08;;;4.80;99.90;;;;;;4947889;28;20031;-65
2023/03/29 01:33:32;;;;;;;8.57;2.75;;;4.80;99.90;;;;;;4941284;28;20028;-67
2023/03/29 01:36:13;;;;;;;6.78;2.15;;;4.80;99.90;;;;;;4954315;28;20437;-65
2023/03/29 01:38:42;;;;;;;4.72;2.00;;;4.80;99.90;;;;;;4943579;28;20024;-65
2023/03/29 01:41:09;;;;;;;4.90;2.60;;;4.80;99.90;;;;;;4951365;28;20015;-66
2023/03/29 01:44:00;;;;;;;2.80;2.28;;;4.90;99.90;;;;;;4942718;28;20047;-66
2023/03/29 01:46:55;;;;;;;6.43;2.55;;;4.90;99.90;;;;;;4944968;28;20024;-66
2023/03/29 01:49:33;;;;;;;7.05;2.05;;;4.90;99.90;;;;;;4945902;28;20035;-66
2023/03/29 01:52:08;;;;;;;4.90;2.20;;;4.90;99.90;;;;;;4940178;29;20081;-65
2023/03/29 01:54:39;;;;;;;3.92;2.05;;;4.90;99.90;;;;;;4943696;28;20365;-65
2023/03/29 01:57:08;;;;;;;5.78;2.15;;;4.90;99.90;;;;;;4958220;28;20393;-66
2023/03/29 01:59:38;;;;;;;6.65;3.47;;;5.00;99.90;;;;;;4947397;28;20026;-65
2023/03/29 02:02:10;;;;;;;3.63;1.90;;;5.00;99.90;;;;;;4963168;28;21589;-65
2023/03/29 02:04:48;;;;;;;5.68;2.13;;;5.00;99.90;;;;;;4971053;28;20027;-64
2023/03/29 02:07:17;;;;;;;4.75;2.15;;;5.00;99.90;;;;;;4971550;28;20027;-65
2023/03/29 02:09:45;;;;;;;4.32;2.28;;;5.00;99.90;;;;;;4959843;28;20039;-64
2023/03/29 02:12:12;;;;;;;3.05;2.00;;;5.00;99.90;;;;;;4949503;28;20118;-66
2023/03/29 02:14:38;;;;;;;2.20;1.50;;;5.10;99.90;;;;;;4946808;28;20030;-65
2023/03/29 02:17:20;;;;;;;5.55;2.30;;;5.00;99.90;;;;;;4957506;28;20037;-65
2023/03/29 02:19:49;;;;;;;3.85;1.70;;;5.10;99.90;;;;;;4958817;28;20029;-66
2023/03/29 02:22:26;;;;;;;7.75;2.28;;;5.00;99.90;;;;;;4972079;28;20030;-66
2023/03/29 02:24:57;;;;;;;3.45;1.70;;;5.00;99.90;;;;;;4945833;28;20443;-65
2023/03/29 02:27:24;;;;;;;5.40;2.20;;;5.10;99.90;;;;;;4960306;28;20032;-66
2023/03/29 02:29:50;;;;;;;4.68;2.40;;;5.10;99.90;;;;;;4967587;28;20486;-66
2023/03/29 02:32:22;;;;;;;4.60;1.88;;;5.10;99.90;;;;;;4948049;28;20102;-65
2023/03/29 02:34:59;;;;;;;3.63;2.05;;;5.10;99.90;;;;;;4947825;28;20128;-66
2023/03/29 02:37:29;;;;;;;3.88;2.05;;;5.10;99.90;;;;;;4965608;28;20015;-66
2023/03/29 02:39:56;;;;;;;5.60;1.70;;;5.10;99.90;;;;;;4957045;28;20405;-65
2023/03/29 02:42:24;;;;;;;3.40;2.08;;;5.10;99.90;;;;;;4948025;28;20038;-65
2023/03/29 02:44:54;;;;;;;8.68;2.47;;;5.10;99.90;;;;;;4956088;28;20114;-65
2023/03/29 02:47:35;;;;;;;3.75;1.67;;;5.10;99.90;;;;;;4945539;28;20102;-66
2023/03/29 02:50:01;;;;;;;4.47;1.70;;;5.10;99.90;;;;;;4950122;28;20038;-67
2023/03/29 02:52:33;;;;;;;4.47;1.73;;;5.10;99.90;;;;;;4926261;28;20047;-67
2023/03/29 02:55:02;;;;;;;3.67;1.98;;;5.10;99.90;;;;;;4945266;28;20404;-66
2023/03/29 02:57:27;;;;;;;6.03;2.47;;;5.10;99.90;;;;;;4943551;28;20673;-66
2023/03/29 02:59:55;;;;;;;3.72;1.90;;;5.10;99.90;;;;;;4970085;28;20504;-67
2023/03/29 03:02:24;;;;;;;2.97;1.70;;;5.10;99.90;;;;;;4960090;28;20039;-66
2023/03/29 03:04:50;;;;;;;3.47;2.33;;;5.10;99.90;;;;;;4950499;28;20035;-66
2023/03/29 03:07:16;;;;;;;4.28;1.95;;;5.20;99.90;;;;;;4973139;28;20050;-66
2023/03/29 03:09:42;;;;;;;2.78;1.70;;;5.10;99.90;;;;;;4970553;28;20494;-65
2023/03/29 03:12:07;;;;;;;6.90;2.15;;;5.10;99.90;;;;;;4969594;28;20028;-66
2023/03/29 03:14:33;;;;;;;5.55;2.33;;;5.20;99.90;;;;;;4954570;28;20027;-66
2023/03/29 03:16:59;;;;;;;6.88;2.30;;;5.20;99.90;;;;;;4944034;28;20070;-66
2023/03/29 03:19:25;;;;;;;5.40;2.30;;;5.20;99.90;;;;;;4946163;28;20477;-67
2023/03/29 03:21:51;;;;;;;8.02;3.22;;;5.20;99.90;;;;;;4945388;28;20039;-66
2023/03/29 03:24:17;;;;;;;7.97;3.78;;;5.20;99.90;;;;;;4974142;28;20471;-66
2023/03/29 03:26:45;;;;;;;4.82;2.58;;;5.20;99.90;;;;;;4951538;28;20042;-66
2023/03/29 03:29:12;;;;;;;8.27;2.20;;;5.30;99.90;;;;;;4958673;28;20500;-66
2023/03/29 03:31:40;;;;;;;6.35;2.33;;;5.30;99.90;;;;;;4945665;28;20066;-67
2023/03/29 03:34:08;;;;;;;3.83;1.90;;;5.40;99.90;;;;;;4964650;28;20093;-66
2023/03/29 03:36:34;;;;;;;7.15;2.17;;;5.30;99.90;;;;;;4982490;28;20030;-67
2023/03/29 03:39:01;;;;;;;5.45;2.05;;;5.40;99.90;;;;;;4959159;28;20039;-66
2023/03/29 03:41:27;;;;;;;3.50;2.05;;;5.30;99.90;;;;;;4945764;28;20038;-66
2023/03/29 03:43:53;;;;;;;6.70;2.30;;;5.30;99.90;;;;;;4964116;28;20130;-67
2023/03/29 03:46:19;;;;;;;4.45;2.05;;;5.40;99.90;;;;;;4947456;28;20035;-67
2023/03/29 03:48:45;;;;;;;7.30;2.03;;;5.30;99.90;;;;;;4944048;28;20114;-65
2023/03/29 03:51:11;;;;;;;5.50;2.08;;;5.40;99.90;;;;;;4946219;28;20062;-66
2023/03/29 03:53:37;;;;;;;7.28;2.28;;;5.40;99.90;;;;;;4946479;28;20035;-66
2023/03/29 03:56:07;;;;;;;3.65;1.90;;;5.40;99.90;;;;;;4947365;28;20396;-68
2023/03/29 03:58:36;;;;;;;6.40;1.83;;;5.40;99.90;;;;;;4937040;28;20043;-65
2023/03/29 04:01:03;;;;;;;5.47;2.25;;;5.40;99.90;;;;;;4948651;28;20027;-67
2023/03/29 04:03:30;;;;;;;4.53;2.53;;;5.40;99.90;;;;;;4943958;28;20057;-66
2023/03/29 04:06:00;;;;;;;6.13;1.70;;;5.40;99.90;;;;;;4947382;28;20125;-65
2023/03/29 04:08:26;;;;;;;2.88;1.77;;;5.40;99.90;;;;;;4947187;28;20370;-66
2023/03/29 04:10:53;;;;;;;6.20;1.70;;;5.50;99.90;;;;;;4944320;28;20038;-67
2023/03/29 04:13:19;;;;;;;6.70;2.42;;;5.50;99.90;;;;;;4954747;28;20032;-66
2023/03/29 04:15:44;;;;;;;6.28;1.80;;;5.40;99.90;;;;;;4946732;28;20023;-66
2023/03/29 04:18:11;;;;;;;2.70;1.80;;;5.40;99.90;;;;;;4975579;28;20044;-67
2023/03/29 04:20:37;;;;;;;2.50;1.60;;;5.50;99.90;;;;;;4949154;28;20047;-66
2023/03/29 04:23:02;;;;;;;7.75;1.80;;;5.50;99.90;;;;;;4950649;28;20061;-65
2023/03/29 04:25:28;;;;;;;3.42;1.65;;;5.50;99.90;;;;;;4948868;28;20463;-66
2023/03/29 04:27:54;;;;;;;1.73;1.38;;;5.50;99.90;;;;;;4962225;28;20027;-66
2023/03/29 04:30:20;;;;;;;5.78;1.88;;;5.50;99.90;;;;;;4964845;28;20100;-66
2023/03/29 04:32:46;;;;;;;2.97;1.73;;;5.50;99.90;;;;;;4960676;28;20032;-65
2023/03/29 04:35:12;;;;;;;6.60;1.83;;;5.50;99.90;;;;;;4972993;28;20034;-65
2023/03/29 04:37:39;;;;;;;6.00;1.73;;;5.50;99.90;;;;;;4983487;28;20091;-65
2023/03/29 04:40:08;;;;;;;4.53;1.95;;;5.50;99.90;;;;;;4966511;28;20047;-66
2023/03/29 04:42:34;;;;;;;2.35;1.38;;;5.60;99.90;;;;;;4980734;28;20101;-66
2023/03/29 04:45:00;;;;;;;6.63;1.88;;;5.60;99.90;;;;;;4977143;28;20678;-66
2023/03/29 04:47:28;;;;;;;2.58;1.60;;;5.60;99.90;;;;;;4981997;28;20074;-64
2023/03/29 04:49:54;;;;;;;5.95;1.60;;;5.60;99.90;;;;;;4977106;28;20035;-65
2023/03/29 04:52:21;;;;;;;4.95;1.85;;;5.60;99.90;;;;;;4981478;28;20025;-66
2023/03/29 04:54:46;;;;;;;2.95;1.98;;;5.60;99.90;;;;;;4968900;28;20039;-65
2023/03/29 04:57:12;;;;;;;3.60;1.65;;;5.70;99.90;;;;;;4947457;28;20038;-66
2023/03/29 04:59:37;;;;;;;5.03;1.77;;;5.60;99.90;;;;;;4946944;28;20169;-65
2023/03/29 05:02:03;;;;;;;2.92;1.75;;;5.60;99.90;;;;;;4954142;28;20111;-67
2023/03/29 05:04:29;;;;;;;10.38;1.95;;;5.60;99.90;;;;;;4951588;28;20563;-66
2023/03/29 05:06:56;;;;;;;3.20;1.33;;;5.70;99.90;;;;;;4942999;28;20032;-66
2023/03/29 05:09:23;;;;;;;2.10;1.58;;;5.70;99.90;;;;;;4947355;28;20081;-66
2023/03/29 05:11:49;;;;;;;4.25;2.05;;;5.70;99.90;;;;;;4971497;28;20144;-66
2023/03/29 05:14:14;;;;;;;6.68;2.20;;;5.70;99.90;;;;;;4955341;28;20028;-66
2023/03/29 05:16:41;;;;;;;2.92;1.45;;;5.70;99.90;;;;;;4972033;28;20367;-66
2023/03/29 05:19:08;;;;;;;4.15;1.75;;;5.70;99.90;;;;;;4955168;28;20077;-68
2023/03/29 05:21:34;;;;;;;5.32;1.92;;;5.80;99.90;;;;;;4958651;28;20031;-66
2023/03/29 05:24:00;;;;;;;3.28;1.85;;;5.80;99.90;;;;;;4949331;28;20509;-66
2023/03/29 05:26:26;;;;;;;4.22;1.70;;;5.80;99.90;;;;;;4965643;28;20030;-66
2023/03/29 05:28:53;;;;;;;7.18;2.97;;;5.80;99.90;;;;;;4963380;28;20043;-68
2023/03/29 05:31:18;;;;;;;9.15;1.98;;;5.80;99.90;;;;;;4969298;28;20027;-67
2023/03/29 05:33:46;;;;;;;3.58;2.00;;;5.80;99.90;;;;;;4952145;28;20027;-67
2023/03/29 05:36:14;;;;;;;8.05;1.95;;;5.80;99.90;;;;;;4951994;28;20027;-66
2023/03/29 05:38:41;;;;;;;4.97;2.65;;;5.80;99.90;;;;;;4957808;28;20515;-67
2023/03/29 05:41:07;;;;;;;3.25;1.92;;;5.90;99.90;;;;;;5037641;23;20049;-66
2023/03/29 05:43:32;;;;;;;3.15;2.08;;;5.90;99.90;;;;;;5046741;28;20033;-67
2023/03/29 05:45:59;;;;;;;2.88;1.52;;;5.90;99.90;;;;;;5044249;28;20505;-65
2023/03/29 05:48:26;;;;;;;4.55;1.50;;;5.90;99.90;;;;;;5045861;28;20033;-66
2023/03/29 05:50:53;;;;;;;2.95;1.90;;;6.00;99.90;;;;;;5043281;28;20079;-67
2023/03/29 05:53:21;;;;;;;4.22;1.58;;;6.00;99.90;;;;;;5047253;28;20037;-66
2023/03/29 05:55:46;;;;;;;6.72;1.73;;;6.10;99.90;;;;;;5041291;28;20025;-67
2023/03/29 05:58:13;;;;;;;4.28;2.20;;;6.10;99.90;;;;;;5043743;28;20104;-67
2023/03/29 06:00:39;;;;;;;5.10;2.05;;;6.10;99.90;;;;;;5031582;28;20094;-66
2023/03/29 06:03:06;;;;;;;4.80;1.80;;;6.30;99.90;;;;;;5044317;28;20029;-67
2023/03/29 06:05:35;;;;;;;5.22;2.05;;;6.30;99.90;;;;;;5042159;28;20075;-66
2023/03/29 06:08:01;;;;;;;3.67;1.35;;;6.30;99.90;;;;;;5045179;28;20037;-67
2023/03/29 06:10:27;;;;;;;4.40;1.90;;;6.30;99.90;;;;;;5044509;28;20031;-65
2023/03/29 06:12:53;;;;;;;3.80;2.03;;;6.40;99.90;;;;;;5045405;28;20434;-66
2023/03/29 06:15:20;;;;;;;2.75;1.50;;;6.50;99.90;;;;;;5042008;28;20123;-66
2023/03/29 06:17:46;;;;;;;5.75;2.25;;;6.50;99.90;;;;;;5041334;28;20478;-66
2023/03/29 06:20:12;;;;;;;4.10;2.05;;;6.60;99.90;;;;;;5044650;28;20032;-66
2023/03/29 06:22:38;;;;;;;3.92;2.30;;;6.60;99.90;;;;;;5037241;28;20029;-66
2023/03/29 06:25:05;;;;;;;5.47;2.38;;;6.60;99.90;;;;;;5045592;28;20486;-66
2023/03/29 06:27:31;;;;;;;6.32;2.08;;;6.60;99.90;;;;;;5043439;28;20824;-66
2023/03/29 06:29:58;;;;;;;5.57;2.15;;;6.60;99.90;;;;;;5042410;28;20111;-66
2023/03/29 06:32:24;;;;;;;4.10;2.15;;;6.70;99.90;;;;;;5041212;28;20040;-66
2023/03/29 06:34:51;;;;;;;6.45;2.10;;;6.70;99.90;;;;;;5041601;28;20025;-65
2023/03/29 06:37:16;;;;;;;7.15;2.22;;;6.80;99.90;;;;;;5042152;28;20028;-66
2023/03/29 06:39:42;;;;;;;5.72;2.30;;;6.80;99.90;;;;;;5039910;28;20037;-66
2023/03/29 06:42:08;;;;;;;4.20;1.70;;;6.90;99.90;;;;;;5039885;28;20028;-66
2023/03/29 06:44:34;;;;;;;5.38;2.08;;;6.90;99.90;;;;;;5039706;28;20036;-66
2023/03/29 06:47:00;;;;;;;3.58;1.98;;;7.00;99.90;;;;;;5041252;28;20033;-66
2023/03/29 06:49:26;;;;;;;7.72;2.38;;;7.00;99.90;;;;;;5039488;28;20034;-66
2023/03/29 06:51:52;;;;;;;3.72;1.67;;;7.00;99.90;;;;;;5039137;28;20029;-66
2023/03/29 06:54:18;;;;;;;6.45;1.98;;;7.10;99.90;;;;;;5041297;28;20954;-66
2023/03/29 06:56:46;;;;;;;3.45;1.63;;;7.10;99.90;;;;;;5041042;28;20033;-66
2023/03/29 06:59:12;;;;;;;2.55;1.67;;;7.20;99.90;;;;;;5041517;28;20025;-66
2023/03/29 07:01:38;;;;;;;4.90;2.00;;;7.20;99.90;;;;;;5028994;28;20057;-66
2023/03/29 07:04:07;;;;;;;5.03;2.20;;;7.20;99.90;;;;;;5039220;28;20029;-67
2023/03/29 07:06:36;;;;;;;7.32;1.92;;;7.30;99.90;;;;;;5045785;28;20482;-66
2023/03/29 07:09:05;;;;;;;2.70;1.67;;;7.30;99.90;;;;;;5037552;28;20414;-67
2023/03/29 07:11:34;;;;;;;5.60;2.45;;;7.30;99.90;;;;;;5047738;28;20111;-66
2023/03/29 07:14:01;;;;;;;2.95;1.75;;;7.40;99.90;;;;;;5043082;28;20017;-67
2023/03/29 07:16:27;;;;;;;4.32;1.77;;;7.50;99.90;;;;;;5042789;28;20490;-67
2023/03/29 07:18:53;;;;;;;5.53;2.03;;;7.60;99.90;;;;;;5037194;28;20419;-66
2023/03/29 07:21:19;;;;;;;5.32;1.88;;;7.70;99.90;;;;;;5049120;28;20025;-66
2023/03/29 07:23:44;;;;;;;4.85;2.00;;;7.80;99.90;;;;;;5040609;28;20029;-66
2023/03/29 07:26:10;;;;;;;2.88;1.90;;;7.80;99.90;;;;;;5039662;28;20040;-66
2023/03/29 07:28:38;;;;;;;3.85;1.80;;;7.80;99.90;;;;;;5043368;28;20667;-67
2023/03/29 07:31:06;;;;;;;6.22;1.60;;;7.90;99.90;;;;;;5040001;28;20428;-67
2023/03/29 07:33:33;;;;;;;4.60;2.47;;;7.90;99.90;;;;;;5041407;28;20064;-66
2023/03/29 07:35:59;;;;;;;5.07;2.08;;;7.90;99.90;;;;;;5037740;28;20033;-67
2023/03/29 07:38:25;;;;;;;4.78;1.55;;;7.90;99.90;;;;;;5043664;28;20123;-66
2023/03/29 07:40:53;;;;;;;4.05;1.85;;;7.90;99.90;;;;;;5033843;28;20029;-67
2023/03/29 07:43:18;;;;;;;2.42;1.38;;;8.00;99.90;;;;;;5045966;28;20108;-67
2023/03/29 07:45:45;;;;;;;3.15;1.60;;;8.10;99.90;;;;;;5039631;28;20550;-66
2023/03/29 07:48:13;;;;;;;4.18;1.73;;;8.00;99.90;;;;;;5044612;28;20371;-66
2023/03/29 07:50:39;;;;;;;3.58;2.03;;;8.10;99.90;;;;;;5039141;28;20040;-67
2023/03/29 07:53:05;;;;;;;3.60;2.00;;;8.00;99.90;;;;;;5047440;28;20074;-67
2023/03/29 07:55:30;;;;;;;3.90;1.90;;;7.90;99.90;;;;;;5039851;28;20029;-67
2023/03/29 07:57:56;;;;;;;4.85;2.05;;;7.90;99.90;;;;;;5044105;28;20029;-66
2023/03/29 08:00:23;;;;;;;3.50;1.60;;;8.10;99.90;;;;;;5030303;28;20045;-66
2023/03/29 08:02:51;;;;;;;6.00;2.22;;;8.10;99.90;;;;;;5036726;28;20036;-66
2023/03/29 08:05:18;;;;;;;3.67;1.95;;;8.20;99.90;;;;;;5045106;28;20036;-66
2023/03/29 08:07:45;;;;;;;3.70;1.85;;;8.40;99.90;;;;;;5044041;28;20017;-66
2023/03/29 08:10:14;;;;;;;3.35;1.60;;;8.80;99.90;;;;;;5046480;28;20033;-67
2023/03/29 08:12:41;;;;;;;3.75;1.73;;;9.00;99.90;;;;;;5042581;28;20121;-67
2023/03/29 08:15:07;;;;;;;4.55;2.42;;;9.50;99.90;;;;;;5038981;28;20025;-66
2023/03/29 08:17:33;;;;;;;5.57;1.88;;;9.60;99.90;;;;;;5042380;28;20084;-66
2023/03/29 08:20:00;;;;;;;3.33;1.67;;;9.70;99.90;;;;;;5044401;28;20078;-67
2023/03/29 08:22:25;;;;;;;6.05;2.58;;;9.90;99.90;;;;;;5049846;28;20033;-68
2023/03/29 08:24:51;;;;;;;7.43;2.00;;;10.00;99.90;;;;;;5048177;28;20040;-67
2023/03/29 08:27:17;;;;;;;4.78;2.03;;;10.10;99.90;;;;;;5045247;28;20051;-68
2023/03/29 08:29:43;;;;;;;4.72;2.20;;;10.00;99.90;;;;;;5045718;28;20037;-66
2023/03/29 08:32:09;;;;;;;3.45;1.55;;;10.00;99.90;;;;;;5048644;28;20119;-66
2023/03/29 08:34:35;;;;;;;4.93;1.75;;;10.20;99.90;;;;;;5042524;28;20022;-67
2023/03/29 08:37:02;;;;;;;2.42;1.73;;;10.30;99.90;;;;;;5045556;28;20036;-67
2023/03/29 08:39:28;;;;;;;2.95;1.55;;;10.50;99.90;;;;;;5045399;28;20108;-65
2023/03/29 08:41:59;;;;;;;3.15;1.52;;;10.60;99.90;;;;;;5048989;28;20112;-67
2023/03/29 08:44:44;;;;;;;4.80;1.70;;;10.50;99.90;;;;;;5045833;28;20087;-66
2023/03/29 08:47:38;;;;;;;3.10;1.90;;;10.60;99.90;;;;;;5048071;28;20025;-67
2023/03/29 08:50:05;;;;;;;10.52;1.80;;;10.60;99.90;;;;;;5039130;28;20517;-67
2023/03/29 08:52:52;;;;;;;3.20;1.77;;;10.70;99.90;;;;;;5049532;28;20376;-67
2023/03/29 08:55:42;;;;;;;4.43;2.00;;;10.70;99.90;;;;;;5046829;28;20025;-67
2023/03/29 08:58:23;;;;;;;5.93;1.65;;;10.80;99.90;;;;;;5044371;28;20028;-67
2023/03/29 09:00:53;;;;;;;4.25;2.00;;;10.80;99.90;;;;;;5034059;28;20594;-67
2023/03/29 09:03:43;;;;;;;7.28;1.70;;;10.60;99.90;;;;;;5043908;28;20037;-67
2023/03/29 09:06:14;;;;;;;5.50;1.70;;;10.50;99.90;;;;;;5045458;28;20464;-67
2023/03/29 09:08:51;;;;;;;5.35;2.05;;;10.40;99.90;;;;;;5047426;28;20494;-67
2023/03/29 09:11:22;;;;;;;6.07;1.80;;;10.40;99.90;;;;;;5041406;28;20045;-67
2023/03/29 09:14:14;;;;;;;3.55;1.90;;;10.30;99.90;;;;;;5047427;28;20098;-67
2023/03/29 09:16:54;;;;;;;6.13;2.00;;;10.20;99.90;;;;;;5026603;28;20048;-67
2023/03/29 09:19:40;;;;;;;3.28;2.00;;;10.30;99.90;;;;;;5044992;28;20067;-67
2023/03/29 09:22:15;;;;;;;2.65;1.52;;;10.10;99.90;;;;;;5045511;28;20032;-68
2023/03/29 09:25:02;;;;;;;5.88;2.33;;;10.20;99.90;;;;;;5038923;28;20105;-67
2023/03/29 09:27:50;;;;;;;4.45;1.50;;;10.30;99.90;;;;;;5043685;28;20504;-67
2023/03/29 09:30:25;;;;;;;4.93;2.05;;;10.40;99.90;;;;;;5045601;28;20558;-67
2023/03/29 09:33:03;;;;;;;5.22;1.95;;;10.40;99.90;;;;;;5041161;28;20056;-67
2023/03/29 09:35:39;;;;;;;4.57;1.60;;;10.50;99.90;;;;;;5042398;28;20017;-67
2023/03/29 09:38:10;;;;;;;3.13;1.67;;;10.70;99.90;;;;;;5042692;28;20028;-67
2023/03/29 09:40:51;;;;;;;6.28;1.85;;;10.90;99.90;;;;;;5045749;28;20076;-67
2023/03/29 09:43:25;;;;;;;3.35;1.45;;;11.00;99.90;;;;;;5048607;28;20033;-68
2023/03/29 09:45:55;;;;;;;7.90;2.10;;;11.00;99.90;;;;;;5040275;28;20033;-66
2023/03/29 09:48:21;;;;;;;4.75;1.88;;;11.10;99.90;;;;;;5044150;28;20031;-67
2023/03/29 09:50:50;;;;;;;4.18;2.42;;;11.10;99.90;;;;;;5045596;28;20032;-68
2023/03/29 09:53:17;;;;;;;5.15;2.10;;;11.10;99.90;;;;;;5043550;28;20036;-67
2023/03/29 09:55:45;;;;;;;2.47;1.63;;;11.00;99.90;;;;;;5038004;28;20025;-67
2023/03/29 09:58:16;;;;;;;4.32;1.70;;;10.90;99.90;;;;;;5048159;28;20055;-67
2023/03/29 10:00:43;;;;;;;4.38;1.63;;;10.80;99.90;;;;;;5033868;28;20561;-67
2023/03/29 10:03:19;;;;;;;3.95;1.88;;;10.80;99.90;;;;;;5043321;28;20052;-67
2023/03/29 10:05:48;;;;;;;4.35;2.10;;;10.80;99.90;;;;;;5048003;28;20402;-67
2023/03/29 10:08:21;;;;;;;3.08;1.50;;;10.80;99.90;;;;;;5045510;28;20609;-67
2023/03/29 10:10:47;;;;;;;4.30;3.05;;;10.90;99.90;;;;;;5042226;28;20029;-67
2023/03/29 10:13:21;;;;;;;5.43;1.92;;;10.90;99.90;;;;;;5047083;28;20029;-68
2023/03/29 10:16:20;;;;;;;5.10;2.65;;;10.90;99.90;;;;;;5040682;28;20486;-67
2023/03/29 10:18:46;;;;;;;9.40;1.80;;;11.00;99.90;;;;;;5029570;28;20718;-67
2023/03/29 10:21:15;;;;;;;3.90;1.98;;;11.20;99.90;;;;;;5041174;28;20017;-67
2023/03/29 10:23:41;;;;;;;2.33;1.50;;;11.50;99.90;;;;;;5044722;28;20106;-67
2023/03/29 10:26:15;;;;;;;3.42;1.83;;;11.60;99.90;;;;;;5044180;28;20051;-67
2023/03/29 10:28:41;;;;;;;4.35;1.98;;;12.00;99.90;;;;;;5043251;28;20406;-67
2023/03/29 10:31:15;;;;;;;7.25;2.10;;;12.10;99.90;;;;;;5039675;28;20036;-67
2023/03/29 10:33:40;;;;;;;;;;;12.10;99.90;;;;;;5039680;28;20044;-67
2023/03/29 10:36:06;;;;;;;3.70;1.80;;;12.10;99.90;;;;;;5038067;28;19916;-66
2023/03/29 10:38:35;;;;;;;4.68;1.92;;;12.10;99.90;;;;;;5040666;28;20112;-67
2023/03/29 10:41:05;;;;;;;3.00;1.98;;;12.30;99.90;;;;;;5044222;28;20025;-67
2023/03/29 10:43:38;;;;;;;4.63;1.88;;;12.30;99.90;;;;;;5049353;28;20017;-67
2023/03/29 10:46:18;;;;;;;5.30;2.13;;;12.40;99.90;;;;;;5041072;28;20029;-68
2023/03/29 10:48:49;;;;;;;3.67;1.92;;;12.40;99.90;;;;;;5042096;28;20040;-67
2023/03/29 10:51:17;;;;;;;2.90;1.40;;;12.60;99.90;;;;;;5042172;28;20501;-67
2023/03/29 10:53:43;;;;;;;4.13;1.83;;;12.70;99.90;;;;;;5045411;28;20115;-67
2023/03/29 10:56:29;;;;;;;3.65;1.80;;;12.80;99.90;;;;;;5049867;28;20048;-68
2023/03/29 10:59:08;;;;;;;8.20;2.22;;;13.10;99.90;;;;;;5040011;28;20506;-67
2023/03/29 11:01:48;;;;;;;5.57;2.17;;;13.70;99.90;;;;;;5024314;28;20376;-68
2023/03/29 11:04:38;;;;;;;3.55;1.95;;;14.10;99.90;;;;;;5042575;28;20028;-67
2023/03/29 11:07:30;;;;;;;7.78;2.55;;;14.80;99.90;;;;;;5041003;28;20031;-68
2023/03/29 11:10:31;;;;;;;5.15;2.50;;;15.30;99.90;;;;;;5039704;28;20020;-67
2023/03/29 11:13:32;;;;;;;8.88;2.08;;;15.30;99.90;;;;;;5038706;28;20507;-68
2023/03/29 11:16:16;;;;;;;8.85;1.92;;;15.60;99.90;;;;;;5022645;28;20040;-67
2023/03/29 11:19:10;;;;;;;3.35;2.05;;;15.50;99.90;;;;;;5044929;28;20496;-67
2023/03/29 11:21:38;;;;;;;6.33;1.70;;;15.60;99.60;;;;;;5048270;28;20078;-67
2023/03/29 11:24:10;;;;;;;6.53;2.00;;;15.70;99.90;;;;;;5045761;28;20029;-67
2023/03/29 11:26:36;;;;;;;6.13;1.90;;;16.00;99.90;;;;;;5046561;28;20532;-67
2023/03/29 11:29:10;;;;;;;6.85;3.10;;;16.10;99.90;;;;;;5045814;28;20037;-68
2023/03/29 11:31:42;;;;;;;3.63;1.85;;;16.00;99.80;;;;;;5041582;28;20028;-68
2023/03/29 11:34:30;;;;;;;5.37;2.00;;;15.80;99.90;;;;;;5037372;28;20486;-66
2023/03/29 11:37:04;;;;;;;4.80;2.05;;;15.80;99.50;;;;;;5031674;28;20703;-67
2023/03/29 11:39:54;;;;;;;6.18;1.90;;;16.10;99.60;;;;;;5041617;28;20033;-68
2023/03/29 11:42:25;;;;;;;3.25;1.98;;;16.10;99.40;;;;;;5043310;28;20096;-67
2023/03/29 11:44:54;;;;;;;5.72;2.60;;;16.20;99.70;;;;;;5041332;28;20526;-67
2023/03/29 11:47:22;;;;;;;3.42;1.95;;;15.60;99.90;;;;;;5041387;28;20463;-69
2023/03/29 11:49:59;;;;;;;5.47;2.05;;;15.70;99.90;;;;;;5044636;28;20031;-67
2023/03/29 11:52:43;;;;;;;6.50;2.13;;;15.90;99.90;;;;;;5041415;28;20052;-67
2023/03/29 11:55:27;;;;;;;3.00;1.95;;;16.00;99.90;;;;;;5041010;28;20026;-67
2023/03/29 11:58:15;;;;;;;;;;;15.90;99.90;;;;;;5047753;28;20490;-67
2023/03/29 12:00:51;;;;;;;14.55;6.40;;;16.00;99.90;;;;;;5047505;28;19909;-67
2023/03/29 12:03:42;;;;;;;7.00;2.30;;;15.80;99.90;;;;;;5036748;28;20128;-67
2023/03/29 12:06:10;;;;;;;3.03;1.90;;;16.10;99.90;;;;;;5048879;28;20025;-67
2023/03/29 12:09:02;;;;;;;6.00;2.80;;;16.20;99.90;;;;;;5053546;28;20021;-66
2023/03/29 12:11:41;;;;;;;4.43;2.30;;;16.40;99.90;;;;;;5042493;28;20056;-67
2023/03/29 12:14:14;;;;;;;5.65;1.80;;;16.40;99.50;;;;;;5047115;28;20112;-66
2023/03/29 12:16:50;;;;;;;5.70;2.77;;;16.70;99.60;;;;;;5049740;28;20021;-67
2023/03/29 12:19:28;;;;;;;4.10;2.10;;;16.80;99.60;;;;;;5040383;28;20086;-67
2023/03/29 12:21:56;;;;;;;4.80;1.83;;;17.00;99.30;;;;;;5051682;28;20029;-67
2023/03/29 12:24:24;;;;;;;6.68;2.15;;;17.10;99.20;;;;;;5045630;28;20037;-67
2023/03/29 12:27:01;;;;;;;9.80;2.55;;;17.10;98.60;;;;;;5050456;28;20399;-67
2023/03/29 12:29:55;;;;;;;6.05;2.30;;;17.10;99.00;;;;;;5043478;28;20036;-66
2023/03/29 12:32:44;;;;;;;5.03;1.83;;;16.80;99.30;;;;;;5033688;28;20352;-67
2023/03/29 12:35:44;;;;;;;7.30;2.78;;;16.80;99.00;;;;;;5045848;28;20028;-67
2023/03/29 12:38:18;;;;;;;12.27;4.53;;;16.60;98.80;;;;;;5044507;28;20026;-66
2023/03/29 12:41:15;;;;;;;2.33;1.48;;;16.40;99.30;;;;;;5044788;28;20087;-66
2023/03/29 12:43:42;;;;;;;4.90;2.13;;;16.40;99.20;;;;;;5047090;28;20051;-66
2023/03/29 12:46:24;;;;;;;6.75;3.40;;;16.30;99.70;;;;;;5044320;28;20059;-67
2023/03/29 12:48:56;;;;;;;25.65;10.52;;;16.30;99.70;;;;;;5049293;28;20029;-67
2023/03/29 12:51:31;;;;;;;8.88;4.68;;;16.30;99.90;;;;;;5047913;28;20029;-66
2023/03/29 12:54:14;;;;;;;9.13;3.92;;;16.30;99.90;;;;;;5045863;28;20025;-67
2023/03/29 12:57:16;;;;;;;4.70;2.20;;;16.50;99.90;;;;;;5049294;28;20029;-66
2023/03/29 12:59:45;;;;;;;8.98;2.30;;;16.80;99.90;;;;;;5036965;28;20033;-66
2023/03/29 13:02:13;;;;;;;17.33;2.65;;;16.90;99.90;;;;;;5036283;28;20048;-67
2023/03/29 13:04:41;;;;;;;6.15;2.25;;;17.00;99.20;;;;;;5041898;28;20051;-67
2023/03/29 13:07:26;;;;;;;5.63;2.03;;;16.80;99.80;;;;;;5046394;28;21509;-67
2023/03/29 13:09:57;;;;;;;7.05;3.53;;;16.80;99.20;;;;;;5046158;28;20495;-66
2023/03/29 13:12:42;;;;;;;17.70;5.95;;;16.70;99.90;;;;;;5050909;28;20025;-66